createdAt,value
2022-11-01T00:01:12.406Z,71.26
2022-11-01T00:03:38.823Z,71.30
2022-11-01T00:06:05.393Z,72.11
2022-11-01T00:08:31.812Z,72.50
2022-11-01T00:11:10.343Z,74.20
2022-11-01T00:13:36.631Z,74.97
2022-11-01T00:16:03.109Z,75.48
2022-11-01T00:18:29.624Z,75.30
2022-11-01T00:20:56.175Z,75.23
2022-11-01T00:23:22.468Z,74.98
2022-11-01T00:25:48.903Z,75.03
2022-11-01T00:28:15.289Z,74.96
2022-11-01T00:30:41.971Z,74.88
2022-11-01T00:33:08.513Z,74.82
2022-11-01T00:35:38.492Z,74.69
2022-11-01T00:38:06.077Z,74.11
2022-11-01T00:40:32.906Z,75.07
2022-11-01T00:42:59.407Z,75.60
2022-11-01T00:45:25.707Z,76.95
2022-11-01T00:47:52.038Z,77.47
2022-11-01T00:50:18.400Z,76.61
2022-11-01T00:52:44.680Z,78.30
2022-11-01T00:55:11.115Z,77.14
2022-11-01T00:57:37.441Z,76.45
2022-11-01T01:00:04.929Z,77.81
2022-11-01T01:02:31.307Z,77.91
2022-11-01T01:04:57.648Z,77.54
2022-11-01T01:07:23.969Z,77.62
2022-11-01T01:09:50.323Z,77.12
2022-11-01T01:12:16.668Z,77.93
2022-11-01T01:14:43.042Z,77.94
2022-11-01T01:17:09.443Z,78.00
2022-11-01T01:19:35.760Z,77.59
2022-11-01T01:22:02.829Z,77.54
2022-11-01T01:24:29.271Z,78.13
2022-11-01T01:26:55.584Z,77.71
2022-11-01T01:29:22.113Z,76.97
2022-11-01T01:31:50.474Z,77.29
2022-11-01T01:34:17.314Z,77.04
2022-11-01T01:36:44.585Z,77.22
2022-11-01T01:39:11.193Z,76.82
2022-11-01T01:41:55.682Z,76.63
2022-11-01T01:44:53.324Z,76.97
2022-11-01T01:47:32.970Z,77.07
2022-11-01T01:50:10.929Z,77.21
2022-11-01T01:52:47.375Z,76.80
2022-11-01T01:55:17.683Z,77.05
2022-11-01T01:57:44.612Z,76.48
2022-11-01T02:00:11.639Z,77.10
2022-11-01T02:02:40.650Z,77.31
2022-11-01T02:05:13.102Z,76.91
2022-11-01T02:07:39.400Z,77.38
2022-11-01T02:10:06.466Z,76.85
2022-11-01T02:12:36.234Z,76.84
2022-11-01T02:15:05.347Z,77.36
2022-11-01T02:17:46.983Z,76.66
2022-11-01T02:20:37.121Z,76.60
2022-11-01T02:23:25.347Z,76.35
2022-11-01T02:26:07.020Z,76.58
2022-11-01T02:28:49.201Z,75.94
2022-11-01T02:31:30.527Z,75.63
2022-11-01T02:34:01.563Z,76.83
2022-11-01T02:36:36.520Z,76.49
2022-11-01T02:39:20.674Z,77.06
2022-11-01T02:41:57.319Z,76.97
2022-11-01T02:44:27.602Z,77.02
2022-11-01T02:47:01.812Z,77.13
2022-11-01T02:49:33.531Z,76.76
2022-11-01T02:52:01.484Z,77.37
2022-11-01T02:54:33.327Z,77.70
2022-11-01T02:57:28.736Z,77.99
2022-11-01T03:00:03.277Z,77.93
2022-11-01T03:02:42.059Z,78.46
2022-11-01T03:05:27.240Z,78.14
2022-11-01T03:08:18.248Z,78.70
2022-11-01T03:11:02.861Z,78.98
2022-11-01T03:14:28.237Z,78.84
2022-11-01T03:17:06.527Z,79.35
2022-11-01T03:19:43.435Z,79.08
2022-11-01T03:22:15.404Z,79.38
2022-11-01T03:24:47.796Z,79.08
2022-11-01T03:27:23.303Z,78.96
2022-11-01T03:29:57.238Z,79.55
2022-11-01T03:32:32.070Z,79.26
2022-11-01T03:35:01.668Z,79.43
2022-11-01T03:37:30.560Z,80.10
2022-11-01T03:40:02.657Z,79.56
2022-11-01T03:42:30.099Z,80.02
2022-11-01T03:45:03.184Z,79.75
2022-11-01T03:47:30.035Z,79.79
2022-11-01T03:50:12.753Z,80.24
2022-11-01T03:52:39.127Z,79.87
2022-11-01T03:55:18.003Z,80.11
2022-11-01T03:57:48.045Z,79.85
2022-11-01T04:00:17.554Z,80.06
2022-11-01T04:02:43.897Z,80.49
2022-11-01T04:05:11.397Z,80.25
2022-11-01T04:07:38.744Z,80.14
2022-11-01T04:10:05.801Z,80.47
2022-11-01T04:12:32.166Z,80.03
2022-11-01T04:15:17.150Z,80.49
2022-11-01T04:18:02.053Z,80.51
2022-11-01T04:20:34.004Z,80.22
2022-11-01T04:23:06.229Z,80.35
2022-11-01T04:25:34.351Z,80.49
2022-11-01T04:28:00.755Z,80.81
2022-11-01T04:30:29.460Z,80.95
2022-11-01T04:32:56.180Z,81.08
2022-11-01T04:35:23.236Z,80.49
2022-11-01T04:37:55.903Z,80.61
2022-11-01T04:40:22.218Z,80.81
2022-11-01T04:42:48.656Z,80.98
2022-11-01T04:45:15.182Z,81.03
2022-11-01T04:47:52.072Z,80.83
2022-11-01T04:50:20.367Z,81.45
2022-11-01T04:52:47.742Z,81.36
2022-11-01T04:55:14.433Z,81.10
2022-11-01T04:57:41.933Z,81.41
2022-11-01T05:00:11.188Z,81.49
2022-11-01T05:02:38.636Z,81.53
2022-11-01T05:05:07.101Z,81.79
2022-11-01T05:07:33.691Z,81.93
2022-11-01T05:10:00.175Z,82.09
2022-11-01T05:12:27.222Z,81.60
2022-11-01T05:14:56.729Z,81.94
2022-11-01T05:17:23.462Z,82.10
2022-11-01T05:19:49.784Z,82.18
2022-11-01T05:22:17.035Z,81.69
2022-11-01T05:24:43.526Z,81.84
2022-11-01T05:27:09.829Z,81.92
2022-11-01T05:29:36.139Z,81.63
2022-11-01T05:32:02.484Z,82.25
2022-11-01T05:34:28.763Z,81.87
2022-11-01T05:36:55.283Z,81.75
2022-11-01T05:39:21.597Z,81.77
2022-11-01T05:41:47.883Z,81.69
2022-11-01T05:44:14.204Z,81.48
2022-11-01T05:46:40.492Z,81.82
2022-11-01T05:49:06.910Z,81.52
2022-11-01T05:51:33.223Z,81.66
2022-11-01T05:53:59.496Z,81.55
2022-11-01T05:56:25.776Z,81.72
2022-11-01T05:58:52.056Z,81.61
2022-11-01T06:01:18.595Z,81.03
2022-11-01T06:03:49.874Z,80.87
2022-11-01T06:06:16.566Z,79.85
2022-11-01T06:08:42.873Z,80.15
2022-11-01T06:11:09.754Z,79.92
2022-11-01T06:13:36.100Z,78.28
2022-11-01T06:16:05.201Z,77.54
2022-11-01T06:18:31.986Z,77.43
2022-11-01T06:20:59.148Z,77.34
2022-11-01T06:23:25.453Z,76.96
2022-11-01T06:25:59.366Z,76.54
2022-11-01T06:28:25.684Z,76.94
2022-11-01T06:30:52.039Z,76.88
2022-11-01T06:33:18.374Z,75.39
2022-11-01T06:35:44.669Z,75.15
2022-11-01T06:38:10.989Z,74.51
2022-11-01T06:40:37.605Z,73.24
2022-11-01T06:43:06.003Z,73.18
2022-11-01T06:45:33.044Z,72.33
2022-11-01T06:47:59.620Z,72.15
2022-11-01T06:50:26.184Z,72.01
2022-11-01T06:52:57.411Z,71.30
2022-11-01T06:55:24.603Z,70.79
2022-11-01T06:57:55.822Z,70.63
2022-11-01T07:00:22.512Z,70.10
2022-11-01T07:02:49.165Z,69.65
2022-11-01T07:05:15.613Z,65.71
2022-11-01T07:07:42.028Z,63.46
2022-11-01T07:10:09.268Z,61.91
2022-11-01T07:12:35.599Z,61.37
2022-11-01T07:15:01.895Z,60.95
2022-11-01T07:17:28.184Z,60.77
2022-11-01T07:19:54.464Z,60.56
2022-11-01T07:22:20.740Z,60.67
2022-11-01T07:24:47.067Z,60.04
2022-11-01T07:27:19.330Z,60.42
2022-11-01T07:29:46.963Z,60.84
2022-11-01T07:32:13.308Z,60.91
2022-11-01T07:34:39.608Z,60.95
2022-11-01T07:37:05.897Z,60.39
2022-11-01T07:39:32.216Z,60.01
2022-11-01T07:41:59.281Z,59.84
2022-11-01T07:44:25.623Z,59.44
2022-11-01T07:46:51.930Z,59.15
2022-11-01T07:49:18.527Z,59.48
2022-11-01T07:51:44.824Z,58.69
2022-11-01T07:54:11.400Z,59.19
2022-11-01T07:56:37.716Z,59.18
2022-11-01T07:59:04.247Z,59.35
2022-11-01T08:01:30.655Z,58.14
2022-11-01T08:03:57.027Z,58.12
2022-11-01T08:06:23.607Z,56.70
2022-11-01T08:08:50.013Z,56.28
2022-11-01T08:11:16.575Z,56.45
2022-11-01T08:13:42.901Z,55.71
2022-11-01T08:16:09.224Z,54.95
2022-11-01T08:18:35.532Z,55.31
2022-11-01T08:21:01.816Z,55.04
2022-11-01T08:23:28.173Z,54.45
2022-11-01T08:25:54.505Z,53.48
2022-11-01T08:28:21.142Z,53.35
2022-11-01T08:30:49.575Z,52.92
2022-11-01T08:33:16.309Z,52.66
2022-11-01T08:35:49.772Z,53.02
2022-11-01T08:38:17.134Z,51.95
2022-11-01T08:40:43.576Z,52.75
2022-11-01T08:43:10.048Z,51.82
2022-11-01T08:45:36.382Z,52.21
2022-11-01T08:48:05.147Z,51.47
2022-11-01T08:50:33.798Z,51.15
2022-11-01T08:53:07.752Z,50.61
2022-11-01T08:55:37.612Z,50.50
2022-11-01T08:58:05.724Z,50.28
2022-11-01T09:00:32.292Z,49.74
2022-11-01T09:02:58.891Z,49.32
2022-11-01T09:05:25.387Z,49.17
2022-11-01T09:07:59.690Z,49.37
2022-11-01T09:10:27.154Z,48.05
2022-11-01T09:12:53.630Z,48.22
2022-11-01T09:15:20.045Z,48.05
2022-11-01T09:17:46.468Z,46.75
2022-11-01T09:20:14.183Z,47.53
2022-11-01T09:22:40.994Z,46.94
2022-11-01T09:25:08.020Z,47.55
2022-11-01T09:27:34.308Z,47.52
2022-11-01T09:30:00.632Z,47.43
2022-11-01T09:32:30.036Z,46.78
2022-11-01T09:34:56.685Z,47.04
2022-11-01T09:37:23.493Z,45.81
2022-11-01T09:39:49.772Z,44.96
2022-11-01T09:42:24.348Z,44.97
2022-11-01T09:44:53.990Z,44.77
2022-11-01T09:47:23.766Z,42.96
2022-11-01T09:49:56.396Z,42.65
2022-11-01T09:52:24.875Z,42.62
2022-11-01T09:54:51.580Z,41.91
2022-11-01T09:57:26.483Z,41.08
2022-11-01T10:00:16.240Z,40.23
2022-11-01T10:03:00.980Z,39.34
2022-11-01T10:05:36.327Z,38.55
2022-11-01T10:08:11.471Z,38.70
2022-11-01T10:11:03.887Z,38.01
2022-11-01T10:13:46.895Z,37.46
2022-11-01T10:16:35.828Z,37.29
2022-11-01T10:19:14.656Z,37.54
2022-11-01T10:21:47.909Z,37.30
2022-11-01T10:24:24.495Z,37.77
2022-11-01T10:26:56.112Z,37.92
2022-11-01T10:29:37.103Z,38.15
2022-11-01T10:32:05.355Z,38.27
2022-11-01T10:34:39.312Z,40.25
2022-11-01T10:37:23.412Z,38.22
2022-11-01T10:40:18.700Z,37.85
2022-11-01T10:42:45.167Z,38.77
2022-11-01T10:45:16.510Z,38.76
2022-11-01T10:47:46.146Z,38.90
2022-11-01T10:50:12.448Z,39.29
2022-11-01T10:52:53.808Z,39.90
2022-11-01T10:55:42.178Z,39.58
2022-11-01T10:58:20.679Z,39.28
2022-11-01T11:00:48.110Z,39.27
2022-11-01T11:03:27.592Z,39.08
2022-11-01T11:05:56.260Z,39.52
2022-11-01T11:08:24.368Z,39.85
2022-11-01T11:10:51.181Z,40.12
2022-11-01T11:13:21.985Z,40.60
2022-11-01T11:16:00.468Z,40.20
2022-11-01T11:18:38.909Z,39.44
2022-11-01T11:21:08.651Z,39.37
2022-11-01T11:23:41.194Z,40.25
2022-11-01T11:26:19.597Z,40.92
2022-11-01T11:28:50.066Z,39.82
2022-11-01T11:31:28.497Z,39.67
2022-11-01T11:33:59.408Z,40.54
2022-11-01T11:36:38.195Z,41.86
2022-11-01T11:39:05.519Z,40.51
2022-11-01T11:41:36.782Z,40.78
2022-11-01T11:44:03.670Z,40.52
2022-11-01T11:46:30.074Z,40.32
2022-11-01T11:49:00.541Z,40.63
2022-11-01T11:51:33.562Z,40.80
2022-11-01T11:54:24.712Z,40.20
2022-11-01T11:57:08.656Z,40.61
2022-11-01T11:59:35.514Z,40.87
2022-11-01T12:02:04.578Z,39.82
2022-11-01T12:04:40.084Z,40.30
2022-11-01T12:07:11.216Z,40.13
2022-11-01T12:09:48.042Z,39.44
2022-11-01T12:12:22.292Z,40.16
2022-11-01T12:14:48.789Z,40.04
2022-11-01T12:17:24.274Z,39.38
2022-11-01T12:20:09.783Z,41.20
2022-11-01T12:22:39.232Z,40.11
2022-11-01T12:25:10.872Z,39.57
2022-11-01T12:27:37.748Z,39.27
2022-11-01T12:30:11.384Z,40.16
2022-11-01T12:32:49.505Z,39.66
2022-11-01T12:35:36.535Z,39.91
2022-11-01T12:38:33.795Z,39.93
2022-11-01T12:41:12.619Z,38.70
2022-11-01T12:43:53.638Z,38.76
2022-11-01T12:46:29.906Z,38.80
2022-11-01T12:49:26.481Z,38.71
2022-11-01T12:51:57.924Z,39.01
2022-11-01T12:54:39.788Z,39.00
2022-11-01T12:57:14.574Z,40.10
2022-11-01T12:59:42.821Z,39.32
2022-11-01T13:02:51.687Z,38.62
2022-11-01T13:05:26.997Z,39.95
2022-11-01T13:08:21.363Z,38.94
2022-11-01T13:10:50.963Z,38.75
2022-11-01T13:13:36.297Z,38.96
2022-11-01T13:16:19.155Z,39.53
2022-11-01T13:19:20.535Z,39.40
2022-11-01T13:21:58.889Z,40.41
2022-11-01T13:24:43.750Z,40.52
2022-11-01T13:27:18.982Z,39.21
2022-11-01T13:29:59.285Z,39.48
2022-11-01T13:32:47.630Z,41.28
2022-11-01T13:35:36.840Z,40.73
2022-11-01T13:38:21.094Z,40.39
2022-11-01T13:40:50.763Z,40.50
2022-11-01T13:43:22.087Z,40.96
2022-11-01T13:46:23.911Z,40.89
2022-11-01T13:49:11.906Z,40.57
2022-11-01T13:51:44.347Z,42.33
2022-11-01T13:54:25.784Z,39.91
2022-11-01T13:57:00.774Z,41.93
2022-11-01T13:59:37.680Z,40.38
2022-11-01T14:02:27.243Z,40.85
2022-11-01T14:04:58.975Z,42.41
2022-11-01T14:07:30.322Z,40.42
2022-11-01T14:09:56.658Z,41.01
2022-11-01T14:12:36.485Z,40.69
2022-11-01T14:15:13.378Z,40.72
2022-11-01T14:17:55.965Z,39.89
2022-11-01T14:20:25.392Z,40.02
2022-11-01T14:22:56.401Z,40.78
2022-11-01T14:25:22.722Z,41.22
2022-11-01T14:27:51.999Z,41.35
2022-11-01T14:30:23.516Z,40.98
2022-11-01T14:33:04.296Z,40.34
2022-11-01T14:35:36.599Z,41.81
2022-11-01T14:38:29.072Z,40.96
2022-11-01T14:40:59.800Z,42.07
2022-11-01T14:43:39.000Z,42.14
2022-11-01T14:46:24.307Z,40.64
2022-11-01T14:49:15.525Z,41.64
2022-11-01T14:51:50.298Z,41.90
2022-11-01T14:54:28.760Z,41.60
2022-11-01T14:56:57.567Z,41.60
2022-11-01T14:59:31.639Z,42.69
2022-11-01T15:02:03.292Z,42.16
2022-11-01T15:04:32.894Z,42.67
2022-11-01T15:07:00.537Z,42.72
2022-11-01T15:09:29.888Z,43.68
2022-11-01T15:12:06.169Z,43.35
2022-11-01T15:14:44.636Z,43.00
2022-11-01T15:17:28.794Z,43.48
2022-11-01T15:19:57.017Z,43.94
2022-11-01T15:22:28.264Z,43.96
2022-11-01T15:25:00.875Z,45.96
2022-11-01T15:27:35.836Z,44.07
2022-11-01T15:30:03.025Z,44.40
2022-11-01T15:32:34.904Z,44.30
2022-11-01T15:35:05.831Z,45.17
2022-11-01T15:37:33.388Z,44.98
2022-11-01T15:40:01.123Z,45.71
2022-11-01T15:42:32.038Z,45.41
2022-11-01T15:45:18.306Z,46.16
2022-11-01T15:47:45.809Z,45.59
2022-11-01T15:50:12.258Z,45.99
2022-11-01T15:52:38.956Z,45.83
2022-11-01T15:55:17.035Z,46.27
2022-11-01T15:57:57.314Z,46.47
2022-11-01T16:00:29.457Z,47.26
2022-11-01T16:03:06.925Z,46.77
2022-11-01T16:05:37.702Z,48.51
2022-11-01T16:08:09.082Z,48.48
2022-11-01T16:10:35.792Z,48.77
2022-11-01T16:13:05.058Z,49.35
2022-11-01T16:15:33.931Z,49.76
2022-11-01T16:18:12.957Z,50.41
2022-11-01T16:20:47.089Z,50.04
2022-11-01T16:23:28.366Z,50.39
2022-11-01T16:26:08.957Z,51.49
2022-11-01T16:28:44.835Z,52.14
2022-11-01T16:31:32.677Z,51.97
2022-11-01T16:33:59.068Z,52.80
2022-11-01T16:36:38.516Z,53.29
2022-11-01T16:39:33.350Z,53.44
2022-11-01T16:42:00.115Z,53.65
2022-11-01T16:44:26.877Z,54.78
2022-11-01T16:46:54.835Z,54.67
2022-11-01T16:49:29.525Z,55.31
2022-11-01T16:51:58.709Z,54.44
2022-11-01T16:54:26.066Z,54.92
2022-11-01T16:56:55.838Z,54.95
2022-11-01T16:59:43.459Z,56.17
2022-11-01T17:02:26.104Z,56.39
2022-11-01T17:04:56.759Z,56.92
2022-11-01T17:07:23.301Z,57.50
2022-11-01T17:09:49.718Z,57.81
2022-11-01T17:12:16.055Z,57.57
2022-11-01T17:14:43.019Z,57.86
2022-11-01T17:17:17.114Z,58.25
2022-11-01T17:19:46.962Z,58.28
2022-11-01T17:22:21.826Z,58.86
2022-11-01T17:24:48.333Z,58.78
2022-11-01T17:27:15.576Z,59.11
2022-11-01T17:29:42.956Z,58.79
2022-11-01T17:32:10.956Z,59.28
2022-11-01T17:34:37.800Z,59.67
2022-11-01T17:37:04.970Z,59.67
2022-11-01T17:39:31.380Z,59.91
2022-11-01T17:41:57.830Z,59.81
2022-11-01T17:44:24.104Z,60.47
2022-11-01T17:46:50.505Z,60.56
2022-11-01T17:49:21.200Z,60.25
2022-11-01T17:51:53.273Z,61.07
2022-11-01T17:54:21.430Z,61.07
2022-11-01T17:56:47.879Z,61.63
2022-11-01T17:59:14.206Z,61.79
2022-11-01T18:01:42.524Z,61.40
2022-11-01T18:04:09.006Z,61.91
2022-11-01T18:06:35.806Z,62.09
2022-11-01T18:09:05.385Z,62.23
2022-11-01T18:11:46.005Z,62.21
2022-11-01T18:14:15.355Z,62.60
2022-11-01T18:16:44.613Z,62.73
2022-11-01T18:19:49.480Z,62.63
2022-11-01T18:22:26.034Z,63.23
2022-11-01T18:24:58.896Z,63.24
2022-11-01T18:27:36.588Z,63.17
2022-11-01T18:30:17.694Z,63.54
2022-11-01T18:32:54.181Z,63.41
2022-11-01T18:35:25.063Z,63.57
2022-11-01T18:38:14.288Z,63.54
2022-11-01T18:41:20.049Z,63.77
2022-11-01T18:43:46.442Z,64.26
2022-11-01T18:46:26.707Z,64.34
2022-11-01T18:49:01.844Z,64.61
2022-11-01T18:51:31.133Z,64.29
2022-11-01T18:54:18.750Z,64.81
2022-11-01T18:56:49.414Z,64.94
2022-11-01T18:59:32.175Z,64.99
2022-11-01T19:02:10.628Z,65.25
2022-11-01T19:04:38.987Z,65.24
2022-11-01T19:07:20.088Z,65.71
2022-11-01T19:09:54.879Z,65.90
2022-11-01T19:12:28.179Z,65.39
2022-11-01T19:15:17.867Z,65.60
2022-11-01T19:17:44.901Z,65.69
2022-11-01T19:20:22.599Z,66.27
2022-11-01T19:22:49.006Z,66.27
2022-11-01T19:25:22.942Z,66.81
2022-11-01T19:27:52.702Z,66.64
2022-11-01T19:30:24.495Z,66.52
2022-11-01T19:32:53.870Z,66.74
2022-11-01T19:35:22.218Z,67.13
2022-11-01T19:37:50.788Z,66.95
2022-11-01T19:40:42.285Z,66.66
2022-11-01T19:43:13.581Z,66.64
2022-11-01T19:45:49.701Z,66.94
2022-11-01T19:48:20.508Z,66.98
2022-11-01T19:50:46.950Z,67.06
2022-11-01T19:53:31.080Z,67.38
2022-11-01T19:56:03.136Z,67.28
2022-11-01T19:58:35.829Z,67.49
2022-11-01T20:01:17.678Z,67.72
2022-11-01T20:03:46.476Z,67.33
2022-11-01T20:06:20.826Z,67.49
2022-11-01T20:08:50.755Z,67.45
2022-11-01T20:11:17.400Z,67.65
2022-11-01T20:13:43.772Z,68.34
2022-11-01T20:16:10.227Z,67.43
2022-11-01T20:18:36.540Z,68.07
2022-11-01T20:21:06.059Z,68.24
2022-11-01T20:23:33.793Z,68.13
2022-11-01T20:26:00.648Z,67.78
2022-11-01T20:28:27.337Z,68.30
2022-11-01T20:30:53.851Z,67.88
2022-11-01T20:33:20.151Z,67.80
2022-11-01T20:35:46.581Z,68.07
2022-11-01T20:38:13.007Z,67.94
2022-11-01T20:40:39.657Z,67.84
2022-11-01T20:43:06.938Z,68.23
2022-11-01T20:45:36.494Z,68.39
2022-11-01T20:48:03.825Z,68.59
2022-11-01T20:50:30.110Z,68.51
2022-11-01T20:52:56.428Z,68.05
2022-11-01T20:55:22.731Z,68.67
2022-11-01T20:57:49.667Z,68.64
2022-11-01T21:00:18.285Z,68.79
2022-11-01T21:02:45.906Z,68.84
2022-11-01T21:05:24.162Z,69.00
2022-11-01T21:07:56.967Z,68.87
2022-11-01T21:10:36.875Z,68.89
2022-11-01T21:13:21.771Z,69.38
2022-11-01T21:15:48.419Z,69.71
2022-11-01T21:18:14.700Z,69.80
2022-11-01T21:20:44.984Z,69.29
2022-11-01T21:23:25.900Z,69.64
2022-11-01T21:25:57.617Z,69.71
2022-11-01T21:28:36.603Z,69.90
2022-11-01T21:31:14.959Z,70.06
2022-11-01T21:34:00.032Z,69.44
2022-11-01T21:36:42.950Z,69.34
2022-11-01T21:39:28.804Z,69.30
2022-11-01T21:42:03.376Z,69.59
2022-11-01T21:44:40.045Z,69.75
2022-11-01T21:47:06.307Z,69.89
2022-11-01T21:49:33.082Z,70.13
2022-11-01T21:52:01.478Z,70.13
2022-11-01T21:54:30.163Z,70.56
2022-11-01T21:56:57.303Z,70.62
2022-11-01T21:59:24.538Z,70.34
2022-11-01T22:01:50.972Z,70.61
2022-11-01T22:04:17.858Z,70.44
2022-11-01T22:06:44.934Z,70.92
2022-11-01T22:09:12.326Z,70.78
2022-11-01T22:11:38.703Z,70.80
2022-11-01T22:14:05.727Z,70.23
2022-11-01T22:16:32.427Z,70.64
2022-11-01T22:18:59.271Z,70.35
2022-11-01T22:21:25.858Z,70.95
2022-11-01T22:23:52.490Z,70.82
2022-11-01T22:26:18.795Z,70.54
2022-11-01T22:28:45.106Z,71.07
2022-11-01T22:31:11.496Z,70.31
2022-11-01T22:33:38.150Z,70.74
2022-11-01T22:36:07.409Z,70.95
2022-11-01T22:38:38.091Z,70.63
2022-11-01T22:41:15.784Z,70.82
2022-11-01T22:43:45.999Z,71.40
2022-11-01T22:46:19.652Z,71.04
2022-11-01T22:48:47.615Z,70.51
2022-11-01T22:51:22.741Z,70.47
2022-11-01T22:53:50.923Z,70.86
2022-11-01T22:56:18.066Z,71.42
2022-11-01T22:58:44.386Z,71.15
2022-11-01T23:01:25.913Z,71.30
2022-11-01T23:03:57.112Z,72.06
2022-11-01T23:06:34.573Z,71.40
2022-11-01T23:09:15.582Z,71.89
2022-11-01T23:12:06.225Z,71.60
2022-11-01T23:14:45.288Z,71.65
2022-11-01T23:17:27.448Z,71.49
2022-11-01T23:19:57.991Z,71.12
2022-11-01T23:22:27.004Z,70.94
2022-11-01T23:24:53.751Z,70.58
2022-11-01T23:27:20.771Z,70.79
2022-11-01T23:29:52.644Z,70.44
2022-11-01T23:32:19.263Z,69.96
2022-11-01T23:34:46.787Z,70.26
2022-11-01T23:37:16.542Z,70.38
2022-11-01T23:39:43.070Z,70.15
2022-11-01T23:42:17.962Z,70.16
2022-11-01T23:44:45.419Z,69.13
2022-11-01T23:47:41.513Z,69.38
2022-11-01T23:50:22.693Z,68.92
2022-11-01T23:53:04.868Z,69.50
2022-11-01T23:55:35.435Z,69.64
2022-11-01T23:58:06.758Z,68.49
